createdAt,value
2018-11-28T00:00:26.959Z,0
2018-11-28T00:01:27.192Z,0
2018-11-28T00:02:27.697Z,0
2018-11-28T00:03:28.538Z,0
2018-11-28T00:04:29.317Z,0
2018-11-28T00:05:29.817Z,0
2018-11-28T00:06:30.604Z,0
2018-11-28T00:07:31.408Z,0
2018-11-28T00:08:32.469Z,0
2018-11-28T00:09:33.530Z,0
2018-11-28T00:10:33.312Z,0
2018-11-28T00:11:34.094Z,0
2018-11-28T00:12:34.318Z,0
2018-11-28T00:13:35.314Z,0
2018-11-28T00:14:36.816Z,0
2018-11-28T00:15:37.595Z,0
2018-11-28T00:16:38.151Z,0
2018-11-28T00:17:38.705Z,0
2018-11-28T00:18:40.361Z,0
2018-11-28T00:19:40.866Z,0
2018-11-28T00:20:41.369Z,0
2018-11-28T00:21:41.872Z,0
2018-11-28T00:22:43.209Z,0
2018-11-28T00:23:44.039Z,0
2018-11-28T00:24:44.822Z,0
2018-11-28T00:25:45.324Z,0
2018-11-28T00:26:47.658Z,0
2018-11-28T00:27:47.444Z,0
2018-11-28T00:28:48.498Z,0
2018-11-28T00:29:49.001Z,0
2018-11-28T00:30:50.502Z,0
2018-11-28T00:31:50.738Z,0
2018-11-28T00:32:52.514Z,0
2018-11-28T00:33:53.072Z,0
2018-11-28T00:34:54.299Z,0
2018-11-28T00:35:55.522Z,0
2018-11-28T00:36:56.025Z,0
2018-11-28T00:37:57.252Z,0
2018-11-28T00:38:57.755Z,0
2018-11-28T00:39:59.257Z,0
2018-11-28T00:40:59.805Z,0
2018-11-28T00:42:00.310Z,0
2018-11-28T00:43:01.644Z,0
2018-11-28T00:44:02.473Z,0
2018-11-28T00:45:03.259Z,0
2018-11-28T00:46:04.316Z,0
2018-11-28T00:47:05.381Z,0
2018-11-28T00:48:05.921Z,0
2018-11-28T00:49:06.154Z,0
2018-11-28T00:50:06.983Z,0
2018-11-28T00:51:07.485Z,0
2018-11-28T00:52:07.991Z,0
2018-11-28T00:53:08.488Z,0
2018-11-28T00:54:09.319Z,0
2018-11-28T00:55:09.865Z,0
2018-11-28T00:56:10.090Z,0
2018-11-28T00:57:11.590Z,0
2018-11-28T00:58:12.649Z,0
2018-11-28T00:59:12.874Z,0
2018-11-28T01:00:13.382Z,0
2018-11-28T01:01:14.203Z,0
2018-11-28T01:02:14.707Z,0
2018-11-28T01:03:15.209Z,0
2018-11-28T01:04:16.209Z,0
2018-11-28T01:05:17.438Z,0
2018-11-28T01:06:18.947Z,0
2018-11-28T01:07:19.722Z,0
2018-11-28T01:08:20.225Z,0
2018-11-28T01:09:21.450Z,0
2018-11-28T01:10:22.673Z,0
2018-11-28T01:11:24.178Z,0
2018-11-28T01:12:24.959Z,0
2018-11-28T01:13:25.187Z,0
2018-11-28T01:14:26.193Z,0
2018-11-28T01:15:27.420Z,0
2018-11-28T01:16:28.196Z,0
2018-11-28T01:17:28.977Z,0
2018-11-28T01:18:29.483Z,0
2018-11-28T01:19:29.710Z,0
2018-11-28T01:20:31.042Z,0
2018-11-28T01:21:31.823Z,0
2018-11-28T01:22:32.326Z,0
2018-11-28T01:23:34.110Z,0
2018-11-28T01:24:34.946Z,0
2018-11-28T01:25:35.725Z,0
2018-11-28T01:26:36.241Z,0
2018-11-28T01:27:49.506Z,0
2018-11-28T01:28:49.921Z,0
2018-11-28T01:29:50.425Z,0
2018-11-28T01:30:51.759Z,0
2018-11-28T01:31:52.263Z,0
2018-11-28T01:32:52.772Z,0
2018-11-28T01:33:53.055Z,0
2018-11-28T01:34:54.556Z,0
2018-11-28T01:35:55.057Z,0
2018-11-28T01:36:56.571Z,0
2018-11-28T01:37:56.789Z,0
2018-11-28T01:38:58.616Z,0
2018-11-28T01:39:59.397Z,0
2018-11-28T01:41:00.452Z,0
2018-11-28T01:42:00.955Z,0
2018-11-28T01:43:01.459Z,0
2018-11-28T01:44:02.242Z,0
2018-11-28T01:45:03.298Z,0
2018-11-28T01:46:04.635Z,0
2018-11-28T01:47:05.133Z,0
2018-11-28T01:48:05.359Z,0
2018-11-28T01:49:06.636Z,0
2018-11-28T01:50:08.142Z,0
2018-11-28T01:51:08.663Z,0
2018-11-28T01:52:10.163Z,0
2018-11-28T01:53:10.663Z,0
2018-11-28T01:54:12.165Z,0
2018-11-28T01:55:13.950Z,0
2018-11-28T01:56:14.763Z,0
2018-11-28T01:57:16.097Z,0
2018-11-28T01:58:16.320Z,0
2018-11-28T01:59:17.429Z,0
2018-11-28T02:00:18.488Z,0
2018-11-28T02:01:19.280Z,0
2018-11-28T02:02:20.062Z,0
2018-11-28T02:03:20.425Z,0
2018-11-28T02:04:21.208Z,0
2018-11-28T02:05:21.723Z,0
2018-11-28T02:06:22.779Z,0
2018-11-28T02:07:23.280Z,0
2018-11-28T02:08:24.336Z,0
2018-11-28T02:09:25.166Z,0
2018-11-28T02:10:25.950Z,0
2018-11-28T02:11:27.007Z,0
2018-11-28T02:12:28.110Z,0
2018-11-28T02:13:28.883Z,0
2018-11-28T02:14:29.386Z,0
2018-11-28T02:15:29.887Z,0
2018-11-28T02:16:30.384Z,0
2018-11-28T02:17:31.881Z,0
2018-11-28T02:18:32.657Z,0
2018-11-28T02:19:32.951Z,0
2018-11-28T02:20:34.009Z,0
2018-11-28T02:21:35.340Z,0
2018-11-28T02:22:36.397Z,0
2018-11-28T02:23:36.905Z,0
2018-11-28T02:24:37.409Z,0
2018-11-28T02:25:37.910Z,0
2018-11-28T02:26:38.694Z,0
2018-11-28T02:27:40.359Z,0
2018-11-28T02:28:40.863Z,0
2018-11-28T02:29:41.416Z,0
2018-11-28T02:30:42.751Z,0
2018-11-28T02:31:43.435Z,0
2018-11-28T02:32:43.501Z,0
2018-11-28T02:33:44.851Z,0
2018-11-28T02:34:45.352Z,0
2018-11-28T02:35:45.688Z,0
2018-11-28T02:36:46.744Z,0
2018-11-28T02:37:47.262Z,0
2018-11-28T02:38:48.605Z,0
2018-11-28T02:39:49.441Z,0
2018-11-28T02:40:49.791Z,0
2018-11-28T02:41:49.291Z,0
2018-11-28T02:42:50.953Z,0
2018-11-28T02:43:51.737Z,0
2018-11-28T02:44:52.514Z,0
2018-11-28T02:45:53.022Z,0
2018-11-28T02:46:53.831Z,0
2018-11-28T02:47:54.338Z,0
2018-11-28T02:48:55.452Z,0
2018-11-28T02:49:55.891Z,0
2018-11-28T02:50:57.227Z,0
2018-11-28T02:51:57.300Z,0
2018-11-28T02:52:58.354Z,0
2018-11-28T02:53:58.855Z,0
2018-11-28T02:54:59.918Z,0
2018-11-28T02:56:00.983Z,0
2018-11-28T02:57:01.492Z,0
2018-11-28T02:58:03.283Z,0
2018-11-28T02:59:03.905Z,0
2018-11-28T03:00:04.747Z,0
2018-11-28T03:01:05.526Z,0
2018-11-28T03:02:05.872Z,0
2018-11-28T03:03:07.201Z,0
2018-11-28T03:04:06.983Z,0
2018-11-28T03:05:07.494Z,0
2018-11-28T03:06:08.010Z,0
2018-11-28T03:07:08.526Z,0
2018-11-28T03:08:09.861Z,0
2018-11-28T03:09:10.679Z,0
2018-11-28T03:10:10.805Z,0
2018-11-28T03:11:11.875Z,0
2018-11-28T03:12:13.214Z,0
2018-11-28T03:13:14.269Z,0
2018-11-28T03:14:15.603Z,0
2018-11-28T03:15:16.672Z,0
2018-11-28T03:16:17.732Z,0
2018-11-28T03:17:18.790Z,0
2018-11-28T03:18:18.869Z,0
2018-11-28T03:19:20.499Z,0
2018-11-28T03:20:20.916Z,0
2018-11-28T03:21:20.706Z,0
2018-11-28T03:22:21.496Z,0
2018-11-28T03:23:22.561Z,0
2018-11-28T03:24:23.087Z,0
2018-11-28T03:25:23.870Z,0
2018-11-28T03:26:24.647Z,0
2018-11-28T03:27:25.429Z,0
2018-11-28T03:28:26.933Z,0
2018-11-28T03:29:28.160Z,0
2018-11-28T03:30:29.062Z,0
2018-11-28T03:31:30.249Z,0
2018-11-28T03:32:31.715Z,0
2018-11-28T03:33:32.482Z,0
2018-11-28T03:34:32.376Z,0
2018-11-28T03:35:32.455Z,0
2018-11-28T03:36:34.067Z,0
2018-11-28T03:37:35.690Z,0
2018-11-28T03:38:36.304Z,0
2018-11-28T03:39:37.084Z,0
2018-11-28T03:40:38.591Z,0
2018-11-28T03:41:39.927Z,0
2018-11-28T03:42:40.005Z,0
2018-11-28T03:43:40.789Z,0
2018-11-28T03:44:41.864Z,0
2018-11-28T03:45:43.243Z,0
2018-11-28T03:46:44.298Z,0
2018-11-28T03:47:45.521Z,0
2018-11-28T03:48:46.581Z,0
2018-11-28T03:49:47.079Z,0
2018-11-28T03:50:48.472Z,0
2018-11-28T03:51:49.373Z,0
2018-11-28T03:52:50.149Z,0
2018-11-28T03:53:51.208Z,0
2018-11-28T03:54:51.717Z,0
2018-11-28T03:55:53.214Z,0
2018-11-28T03:56:54.204Z,0
2018-11-28T03:57:54.846Z,0
2018-11-28T03:58:54.925Z,0
2018-11-28T03:59:55.704Z,0
2018-11-28T04:00:56.885Z,0
2018-11-28T04:01:57.676Z,0
2018-11-28T04:02:58.023Z,0
2018-11-28T04:03:58.824Z,0
2018-11-28T04:05:00.159Z,0
2018-11-28T04:06:00.940Z,0
2018-11-28T04:07:01.278Z,0
2018-11-28T04:08:01.777Z,0
2018-11-28T04:09:02.555Z,0
2018-11-28T04:10:03.926Z,0
2018-11-28T04:11:04.755Z,0
2018-11-28T04:12:05.821Z,0
2018-11-28T04:13:06.604Z,0
2018-11-28T04:14:08.220Z,0
2018-11-28T04:15:08.003Z,0
2018-11-28T04:16:09.062Z,0
2018-11-28T04:17:10.134Z,0
2018-11-28T04:18:11.200Z,0
2018-11-28T04:19:12.273Z,0
2018-11-28T04:20:12.774Z,0
2018-11-28T04:21:13.338Z,0
2018-11-28T04:22:14.418Z,0
2018-11-28T04:23:15.038Z,0
2018-11-28T04:24:15.823Z,0
2018-11-28T04:25:17.188Z,0
2018-11-28T04:26:16.967Z,0
2018-11-28T04:27:18.365Z,0
2018-11-28T04:28:18.164Z,0
2018-11-28T04:29:18.667Z,0
2018-11-28T04:30:19.484Z,0
2018-11-28T04:31:20.365Z,0
2018-11-28T04:32:21.148Z,0
2018-11-28T04:33:22.213Z,0
2018-11-28T04:34:22.714Z,0
2018-11-28T04:35:23.824Z,0
2018-11-28T04:36:24.893Z,0
2018-11-28T04:37:25.399Z,0
2018-11-28T04:38:25.732Z,0
2018-11-28T04:39:26.784Z,0
2018-11-28T04:40:28.685Z,0
2018-11-28T04:41:29.118Z,0
2018-11-28T04:42:29.894Z,0
2018-11-28T04:43:31.534Z,0
2018-11-28T04:44:31.337Z,0
2018-11-28T04:45:32.960Z,0
2018-11-28T04:46:34.020Z,0
2018-11-28T04:47:35.356Z,0
2018-11-28T04:48:35.919Z,0
2018-11-28T04:49:37.265Z,0
2018-11-28T04:50:38.044Z,0
2018-11-28T04:51:38.887Z,0
2018-11-28T04:52:39.956Z,0
2018-11-28T04:53:41.068Z,0
2018-11-28T04:54:42.131Z,0
2018-11-28T04:55:42.913Z,0
2018-11-28T04:56:43.970Z,0
2018-11-28T04:57:44.478Z,0
2018-11-28T04:58:46.092Z,0
2018-11-28T04:59:47.164Z,0
2018-11-28T05:00:46.994Z,0
2018-11-28T05:01:47.600Z,0
2018-11-28T05:02:48.660Z,0
2018-11-28T05:03:49.175Z,0
2018-11-28T05:04:50.960Z,0
2018-11-28T05:05:52.022Z,0
2018-11-28T05:06:52.573Z,0
2018-11-28T05:07:54.467Z,0
2018-11-28T05:08:53.693Z,0
2018-11-28T05:09:55.473Z,0
2018-11-28T05:10:55.984Z,0
2018-11-28T05:11:56.384Z,0
2018-11-28T05:12:57.722Z,0
2018-11-28T05:13:57.507Z,0
2018-11-28T05:14:58.013Z,0
2018-11-28T05:15:58.794Z,0
2018-11-28T05:16:59.296Z,0
2018-11-28T05:18:01.081Z,0
2018-11-28T05:19:01.586Z,0
2018-11-28T05:20:02.919Z,0
2018-11-28T05:21:03.699Z,0
2018-11-28T05:22:04.531Z,0
2018-11-28T05:23:05.078Z,0
2018-11-28T05:24:05.597Z,0
2018-11-28T05:25:06.825Z,0
2018-11-28T05:26:08.048Z,0
2018-11-28T05:27:08.553Z,0
2018-11-28T05:28:09.056Z,0
2018-11-28T05:29:09.560Z,0
2018-11-28T05:30:10.893Z,0
2018-11-28T05:31:11.399Z,0
2018-11-28T05:32:12.396Z,0
2018-11-28T05:33:13.896Z,0
2018-11-28T05:34:15.398Z,0
2018-11-28T05:35:16.176Z,0
2018-11-28T05:36:16.954Z,0
2018-11-28T05:37:18.310Z,0
2018-11-28T05:38:18.368Z,0
2018-11-28T05:39:19.700Z,0
2018-11-28T05:40:20.219Z,0
2018-11-28T05:41:20.997Z,0
2018-11-28T05:42:22.273Z,0
2018-11-28T05:43:23.331Z,0
2018-11-28T05:44:23.838Z,0
2018-11-28T05:45:25.340Z,0
2018-11-28T05:46:25.841Z,0
2018-11-28T05:47:27.066Z,0
2018-11-28T05:48:27.566Z,0
2018-11-28T05:49:30.471Z,0
2018-11-28T05:50:30.048Z,0
2018-11-28T05:51:31.829Z,0
2018-11-28T05:52:31.833Z,0
2018-11-28T05:53:32.604Z,0
2018-11-28T05:54:33.387Z,0
2018-11-28T05:55:34.166Z,0
2018-11-28T05:56:34.949Z,0
2018-11-28T05:57:36.454Z,0
2018-11-28T05:58:36.951Z,0
2018-11-28T05:59:37.171Z,0
2018-11-28T06:00:38.680Z,0
2018-11-28T06:01:38.734Z,4
2018-11-28T06:02:39.731Z,4
2018-11-28T06:03:41.515Z,4
2018-11-28T06:04:42.289Z,4
2018-11-28T06:05:42.855Z,0
2018-11-28T06:06:43.635Z,4
2018-11-28T06:07:43.856Z,4
2018-11-28T06:08:45.189Z,4
2018-11-28T06:09:45.409Z,4
2018-11-28T06:10:46.469Z,4
2018-11-28T06:11:46.248Z,4
2018-11-28T06:12:46.530Z,12
2018-11-28T06:13:48.030Z,8
2018-11-28T06:14:48.641Z,12
2018-11-28T06:15:49.422Z,16
2018-11-28T06:16:50.490Z,16
2018-11-28T06:17:51.550Z,20
2018-11-28T06:18:52.045Z,24
2018-11-28T06:19:53.273Z,28
2018-11-28T06:20:54.331Z,36
2018-11-28T06:21:55.116Z,40
2018-11-28T06:22:55.946Z,48
2018-11-28T06:23:56.450Z,52
2018-11-28T06:24:57.508Z,60
2018-11-28T06:25:57.730Z,68
2018-11-28T06:26:58.510Z,76
2018-11-28T06:27:59.288Z,88
2018-11-28T06:28:59.791Z,100
2018-11-28T06:30:00.568Z,108
2018-11-28T06:31:01.628Z,120
2018-11-28T06:32:02.696Z,136
2018-11-28T06:33:03.254Z,152
2018-11-28T06:34:03.477Z,168
2018-11-28T06:35:04.865Z,184
2018-11-28T06:36:05.953Z,204
2018-11-28T06:37:06.008Z,224
2018-11-28T06:38:06.793Z,244
2018-11-28T06:39:07.578Z,268
2018-11-28T06:40:07.806Z,292
2018-11-28T06:41:08.594Z,316
2018-11-28T06:42:10.214Z,340
2018-11-28T06:43:10.491Z,368
2018-11-28T06:44:11.996Z,400
2018-11-28T06:45:13.056Z,428
2018-11-28T06:46:13.875Z,460
2018-11-28T06:47:14.103Z,492
2018-11-28T06:48:15.656Z,520
2018-11-28T06:49:16.749Z,544
2018-11-28T06:50:17.982Z,568
2018-11-28T06:51:19.491Z,596
2018-11-28T06:52:19.718Z,628
2018-11-28T06:53:20.320Z,652
2018-11-28T06:54:21.546Z,676
2018-11-28T06:55:23.343Z,712
2018-11-28T06:56:23.845Z,752
2018-11-28T06:57:25.353Z,780
2018-11-28T06:58:26.135Z,816
2018-11-28T06:59:26.638Z,856
2018-11-28T07:00:28.149Z,896
2018-11-28T07:01:29.221Z,932
2018-11-28T07:02:29.447Z,976
2018-11-28T07:03:29.729Z,1012
2018-11-28T07:04:31.519Z,1044
2018-11-28T07:05:32.409Z,1080
2018-11-28T07:06:33.714Z,1108
2018-11-28T07:07:33.580Z,1144
2018-11-28T07:08:35.209Z,1176
2018-11-28T07:09:34.825Z,1224
2018-11-28T07:10:35.375Z,1280
2018-11-28T07:11:36.437Z,1312
2018-11-28T07:12:37.220Z,1356
2018-11-28T07:13:38.060Z,1424
2018-11-28T07:14:38.567Z,1476
2018-11-28T07:15:39.794Z,1504
2018-11-28T07:16:40.577Z,1524
2018-11-28T07:17:41.082Z,1552
2018-11-28T07:18:42.139Z,1580
2018-11-28T07:19:42.658Z,2988
2018-11-28T07:20:43.357Z,5008
2018-11-28T07:21:43.576Z,5912
2018-11-28T07:22:44.080Z,4104
2018-11-28T07:23:44.764Z,2532
2018-11-28T07:24:45.996Z,2700
2018-11-28T07:25:46.785Z,3160
2018-11-28T07:26:47.568Z,4200
2018-11-28T07:27:48.636Z,7444
2018-11-28T07:28:49.427Z,11684
2018-11-28T07:29:49.927Z,20480
2018-11-28T07:30:50.995Z,27904
2018-11-28T07:31:51.824Z,29728
2018-11-28T07:32:52.333Z,33408
2018-11-28T07:33:52.616Z,39680
2018-11-28T07:34:53.126Z,37824
2018-11-28T07:35:54.631Z,34048
2018-11-28T07:36:54.873Z,31584
2018-11-28T07:37:55.947Z,28928
2018-11-28T07:38:56.450Z,22752
2018-11-28T07:39:57.238Z,15904
2018-11-28T07:40:57.743Z,8836
2018-11-28T07:41:58.529Z,7192
2018-11-28T07:43:00.592Z,5864
2018-11-28T07:44:02.279Z,5428
2018-11-28T07:45:02.094Z,5308
2018-11-28T07:46:02.602Z,5332
2018-11-28T07:47:03.406Z,6684
2018-11-28T07:48:03.908Z,8680
2018-11-28T07:49:04.697Z,8624
2018-11-28T07:50:06.423Z,6280
2018-11-28T07:51:06.717Z,10056
2018-11-28T07:52:08.283Z,16416
2018-11-28T07:53:08.854Z,15712
2018-11-28T07:54:10.419Z,10116
2018-11-28T07:55:10.757Z,8708
2018-11-28T07:56:10.972Z,8496
2018-11-28T07:57:12.759Z,11456
2018-11-28T07:58:13.551Z,18240
2018-11-28T07:59:14.061Z,23232
2018-11-28T08:00:15.396Z,17696
2018-11-28T08:01:16.621Z,8688
2018-11-28T08:02:17.406Z,5952
2018-11-28T08:03:17.924Z,5712
2018-11-28T08:04:19.869Z,5324
2018-11-28T08:05:20.297Z,5516
2018-11-28T08:06:21.375Z,5804
2018-11-28T08:07:21.618Z,5720
2018-11-28T08:08:24.337Z,7568
2018-11-28T08:09:24.157Z,12336
2018-11-28T08:10:25.217Z,13868
2018-11-28T08:11:27.222Z,12868
2018-11-28T08:12:26.736Z,8604
2018-11-28T08:13:28.068Z,7228
2018-11-28T08:14:28.354Z,8060
2018-11-28T08:15:29.701Z,7236
2018-11-28T08:16:30.493Z,6632
2018-11-28T08:17:32.248Z,7032
2018-11-28T08:18:33.033Z,6952
2018-11-28T08:19:34.378Z,6284
2018-11-28T08:20:34.887Z,5752
2018-11-28T08:21:35.950Z,5380
2018-11-28T08:22:38.173Z,5084
2018-11-28T08:23:38.960Z,5036
2018-11-28T08:24:40.892Z,5244
2018-11-28T08:25:40.098Z,5668
2018-11-28T08:26:41.322Z,6804
2018-11-28T08:27:43.909Z,7784
2018-11-28T08:28:42.639Z,7968
2018-11-28T08:29:44.435Z,11324
2018-11-28T08:30:45.229Z,8456
2018-11-28T08:31:45.744Z,6000
2018-11-28T08:32:46.801Z,5780
2018-11-28T08:33:47.874Z,5612
2018-11-28T08:34:50.762Z,5736
2018-11-28T08:35:00.267Z,5860
2018-11-28T08:36:00.165Z,6844
2018-11-28T08:37:01.488Z,8272
2018-11-28T08:38:02.199Z,7248
2018-11-28T08:39:03.758Z,7548
2018-11-28T08:40:04.832Z,6940
2018-11-28T08:41:05.336Z,6084
2018-11-28T08:42:07.123Z,6232
2018-11-28T08:43:07.355Z,5832
2018-11-28T08:44:09.140Z,6592
2018-11-28T08:45:09.208Z,7728
2018-11-28T08:46:10.429Z,7488
2018-11-28T08:47:10.214Z,9876
2018-11-28T08:48:11.566Z,12372
2018-11-28T08:49:12.078Z,11408
2018-11-28T08:50:13.413Z,10356
2018-11-28T08:51:13.481Z,8252
2018-11-28T08:52:14.945Z,7112
2018-11-28T08:53:15.942Z,8668
2018-11-28T08:54:17.023Z,8280
2018-11-28T08:55:18.346Z,7436
2018-11-28T08:56:19.114Z,9084
2018-11-28T08:57:19.378Z,11152
2018-11-28T08:58:20.127Z,10456
2018-11-28T08:59:22.100Z,8944
2018-11-28T09:00:21.380Z,8048
2018-11-28T09:01:21.917Z,9040
2018-11-28T09:02:22.820Z,8812
2018-11-28T09:03:23.330Z,8376
2018-11-28T09:04:24.396Z,6836
2018-11-28T09:05:25.735Z,8996
2018-11-28T09:06:26.294Z,9948
2018-11-28T09:07:26.525Z,11472
2018-11-28T09:08:27.034Z,18272
2018-11-28T09:09:27.825Z,23264
2018-11-28T09:10:28.511Z,23872
2018-11-28T09:11:29.451Z,24416
2018-11-28T09:12:29.965Z,26272
2018-11-28T09:13:31.307Z,27552
2018-11-28T09:14:31.814Z,28640
2018-11-28T09:15:33.630Z,25888
2018-11-28T09:16:34.200Z,26272
2018-11-28T09:17:35.045Z,17376
2018-11-28T09:18:35.274Z,21952
2018-11-28T09:19:36.618Z,30560
2018-11-28T09:20:37.128Z,22432
2018-11-28T09:21:37.366Z,13040
2018-11-28T09:22:38.608Z,16800
2018-11-28T09:23:40.118Z,12948
2018-11-28T09:24:40.635Z,9980
2018-11-28T09:25:42.143Z,9388
2018-11-28T09:26:42.448Z,10168
2018-11-28T09:27:43.680Z,12144
2018-11-28T09:28:46.377Z,18752
2018-11-28T09:29:46.887Z,16352
2018-11-28T09:30:47.680Z,14280
2018-11-28T09:31:49.647Z,18432
2018-11-28T09:32:50.456Z,21696
2018-11-28T09:33:50.968Z,17792
2018-11-28T09:34:51.496Z,13104
2018-11-28T09:35:53.004Z,11300
2018-11-28T09:36:54.286Z,12860
2018-11-28T09:37:55.799Z,11300
2018-11-28T09:38:56.027Z,14196
2018-11-28T09:39:56.543Z,14400
2018-11-28T09:40:57.613Z,15760
2018-11-28T09:41:58.403Z,18656
2018-11-28T09:42:59.198Z,17664
2018-11-28T09:43:59.991Z,18272
2018-11-28T09:45:00.780Z,12116
2018-11-28T09:46:01.297Z,13040
2018-11-28T09:47:01.877Z,14792
2018-11-28T09:48:03.952Z,15464
2018-11-28T09:49:03.458Z,19328
2018-11-28T09:50:04.248Z,17536
2018-11-28T09:51:05.765Z,13452
2018-11-28T09:52:06.003Z,11396
2018-11-28T09:53:07.344Z,11092
2018-11-28T09:54:08.596Z,9432
2018-11-28T09:55:09.122Z,10076
2018-11-28T09:56:09.904Z,12856
2018-11-28T09:57:10.477Z,12968
2018-11-28T09:58:11.267Z,15020
2018-11-28T09:59:11.779Z,16672
2018-11-28T10:00:12.341Z,15452
2018-11-28T10:01:12.615Z,17568
2018-11-28T10:02:13.687Z,13664
2018-11-28T10:03:14.474Z,14912
2018-11-28T10:04:16.074Z,12472
2018-11-28T10:05:15.864Z,14080
2018-11-28T10:06:16.099Z,16544
2018-11-28T10:07:17.272Z,17696
2018-11-28T10:08:17.508Z,21280
2018-11-28T10:09:18.024Z,18912
2018-11-28T10:10:19.974Z,18944
2018-11-28T10:11:20.972Z,18112
2018-11-28T10:12:21.977Z,17664
2018-11-28T10:13:22.998Z,18656
2018-11-28T10:14:23.789Z,19264
2018-11-28T10:15:24.036Z,21472
2018-11-28T10:16:25.385Z,22144
2018-11-28T10:17:26.023Z,19712
2018-11-28T10:18:26.545Z,19808
2018-11-28T10:19:27.790Z,22112
2018-11-28T10:20:29.583Z,21792
2018-11-28T10:21:30.099Z,21472
2018-11-28T10:22:31.334Z,22272
2018-11-28T10:23:31.854Z,22368
2018-11-28T10:24:32.647Z,26656
2018-11-28T10:25:33.507Z,26464
2018-11-28T10:26:34.021Z,25824
2018-11-28T10:27:35.378Z,26432
2018-11-28T10:28:34.625Z,22848
2018-11-28T10:29:35.421Z,21664
2018-11-28T10:30:36.224Z,21472
2018-11-28T10:31:36.804Z,24320
2018-11-28T10:32:37.317Z,23520
2018-11-28T10:33:38.556Z,25312
2018-11-28T10:34:40.630Z,25024
2018-11-28T10:35:41.907Z,30688
2018-11-28T10:36:42.096Z,29696
2018-11-28T10:37:42.696Z,32064
2018-11-28T10:38:43.490Z,33376
2018-11-28T10:39:44.285Z,30976
2018-11-28T10:40:45.802Z,40640
2018-11-28T10:41:46.874Z,33568
2018-11-28T10:42:47.960Z,29088
2018-11-28T10:43:48.748Z,29472
2018-11-28T10:44:49.826Z,31840
2018-11-28T10:45:50.065Z,29472
2018-11-28T10:46:50.579Z,32128
2018-11-28T10:47:51.425Z,29408
2018-11-28T10:48:52.555Z,31168
2018-11-28T10:49:53.071Z,39616
2018-11-28T10:50:53.593Z,52832
2018-11-28T10:51:54.102Z,53536
2018-11-28T10:52:55.170Z,44192
2018-11-28T10:53:56.265Z,35136
2018-11-28T10:54:55.808Z,28512
2018-11-28T10:55:57.332Z,31040
2018-11-28T10:56:57.849Z,22048
2018-11-28T10:57:59.263Z,27072
2018-11-28T10:58:59.783Z,41152
2018-11-28T11:00:00.296Z,38688
2018-11-28T11:01:00.820Z,40608
2018-11-28T11:02:01.061Z,26272
2018-11-28T11:03:01.854Z,31232
2018-11-28T11:04:03.229Z,30816
2018-11-28T11:05:03.756Z,22208
2018-11-28T11:06:03.992Z,32160
2018-11-28T11:07:05.227Z,32160
2018-11-28T11:08:06.927Z,22784
2018-11-28T11:09:07.444Z,22144
2018-11-28T11:10:07.967Z,40000
2018-11-28T11:11:08.787Z,38880
2018-11-28T11:12:10.950Z,38496
2018-11-28T11:13:10.819Z,39520
2018-11-28T11:14:11.614Z,34272
2018-11-28T11:15:11.854Z,23360
2018-11-28T11:16:13.099Z,19520
2018-11-28T11:17:14.892Z,16224
2018-11-28T11:18:14.906Z,22144
2018-11-28T11:19:15.426Z,22208
2018-11-28T11:20:16.657Z,18112
2018-11-28T11:21:18.172Z,16416
2018-11-28T11:22:19.973Z,13532
2018-11-28T11:23:20.296Z,10520
2018-11-28T11:24:20.869Z,10684
2018-11-28T11:25:22.100Z,13052
2018-11-28T11:26:23.617Z,16352
2018-11-28T11:27:24.131Z,14588
2018-11-28T11:28:31.657Z,15160
2018-11-28T11:28:41.966Z,14456
2018-11-28T11:29:39.592Z,14576
2018-11-28T11:30:39.741Z,10440
2018-11-28T11:31:39.877Z,12960
2018-11-28T11:32:40.421Z,15680
2018-11-28T11:33:42.773Z,17888
2018-11-28T11:34:42.210Z,19456
2018-11-28T11:35:42.728Z,13564
2018-11-28T11:36:44.244Z,15584
2018-11-28T11:37:44.479Z,13172
2018-11-28T11:38:46.000Z,14004
2018-11-28T11:39:46.419Z,13936
2018-11-28T11:40:48.209Z,11264
2018-11-28T11:41:49.230Z,14604
2018-11-28T11:42:49.350Z,14772
2018-11-28T11:43:49.866Z,10304
2018-11-28T11:44:51.204Z,18112
2018-11-28T11:45:52.994Z,23072
2018-11-28T11:46:58.832Z,20064
2018-11-28T11:47:07.185Z,19296
2018-11-28T11:48:06.959Z,17376
2018-11-28T11:49:07.690Z,12644
2018-11-28T11:50:07.984Z,14188
2018-11-28T11:51:08.498Z,8072
2018-11-28T11:52:09.011Z,8072
2018-11-28T11:53:09.899Z,8684
2018-11-28T11:54:11.537Z,9740
2018-11-28T11:55:11.916Z,9332
2018-11-28T11:56:11.712Z,11256
2018-11-28T11:57:12.509Z,9732
2018-11-28T11:58:13.260Z,11320
2018-11-28T11:59:13.908Z,10992
2018-11-28T12:00:15.254Z,15680
2018-11-28T12:01:14.765Z,14224
2018-11-28T12:02:15.793Z,12100
2018-11-28T12:03:16.859Z,10920
2018-11-28T12:04:17.388Z,12940
2018-11-28T12:05:17.903Z,10344
2018-11-28T12:06:18.496Z,9088
2018-11-28T12:07:24.065Z,10440
2018-11-28T12:08:23.509Z,11096
2018-11-28T12:09:26.267Z,10660
2018-11-28T12:10:24.967Z,9664
2018-11-28T12:11:27.609Z,15008
2018-11-28T12:12:29.532Z,14568
2018-11-28T12:13:31.959Z,13884
2018-11-28T12:14:35.512Z,9728
2018-11-28T12:14:46.212Z,10896
2018-11-28T12:14:54.269Z,10080
2018-11-28T12:15:54.326Z,11436
2018-11-28T12:16:54.578Z,9748
2018-11-28T12:17:55.811Z,12000
2018-11-28T12:18:57.057Z,10920
2018-11-28T12:19:58.132Z,10060
2018-11-28T12:20:59.753Z,11760
2018-11-28T12:21:59.993Z,12192
2018-11-28T12:23:01.622Z,11900
2018-11-28T12:24:01.135Z,12880
2018-11-28T12:25:06.080Z,13576
2018-11-28T12:26:03.920Z,12860
2018-11-28T12:27:04.730Z,11392
2018-11-28T12:28:06.080Z,11460
2018-11-28T12:29:06.870Z,11684
2018-11-28T12:30:07.670Z,12664
2018-11-28T12:31:12.444Z,13620
2018-11-28T12:32:08.978Z,13884
2018-11-28T12:33:09.779Z,14856
2018-11-28T12:34:10.292Z,17024
2018-11-28T12:35:10.812Z,14976
2018-11-28T12:36:12.050Z,9464
2018-11-28T12:37:12.836Z,9092
2018-11-28T12:38:14.051Z,8284
2018-11-28T12:39:16.098Z,8260
2018-11-28T12:40:15.172Z,8828
2018-11-28T12:41:17.694Z,8912
2018-11-28T12:42:17.219Z,6820
2018-11-28T12:43:18.123Z,5744
2018-11-28T12:44:18.915Z,8004
2018-11-28T12:45:19.980Z,8140
2018-11-28T12:46:23.044Z,7756
2018-11-28T12:47:21.760Z,7900
2018-11-28T12:48:21.993Z,8740
2018-11-28T12:49:23.233Z,13164
2018-11-28T12:50:26.647Z,14104
2018-11-28T12:51:26.498Z,13012
2018-11-28T12:52:27.006Z,13860
2018-11-28T12:53:27.514Z,13516
2018-11-28T12:54:28.751Z,13744
2018-11-28T12:55:29.564Z,12200
2018-11-28T12:56:29.864Z,10156
2018-11-28T12:57:30.652Z,9692
2018-11-28T12:58:30.887Z,10656
2018-11-28T12:59:31.397Z,10388
2018-11-28T13:00:32.473Z,10436
2018-11-28T13:01:33.832Z,10412
2018-11-28T13:02:33.343Z,8856
2018-11-28T13:03:33.854Z,7984
2018-11-28T13:04:34.365Z,9092
2018-11-28T13:05:35.873Z,8384
2018-11-28T13:06:36.880Z,9800
2018-11-28T13:07:37.674Z,9412
2018-11-28T13:08:38.227Z,9840
2018-11-28T13:09:41.249Z,8160
2018-11-28T13:10:46.022Z,6212
2018-11-28T13:10:59.096Z,6520
2018-11-28T13:11:08.230Z,7224
2018-11-28T13:12:07.081Z,7252
2018-11-28T13:13:08.150Z,5108
2018-11-28T13:14:08.384Z,4488
2018-11-28T13:15:08.899Z,5524
2018-11-28T13:16:10.146Z,6252
2018-11-28T13:17:10.753Z,5968
2018-11-28T13:18:12.271Z,6260
2018-11-28T13:19:13.384Z,6220
2018-11-28T13:20:14.210Z,6748
2018-11-28T13:21:14.451Z,7700
2018-11-28T13:22:20.568Z,8300
2018-11-28T13:22:31.625Z,8164
2018-11-28T13:22:39.859Z,8212
2018-11-28T13:23:39.602Z,6380
2018-11-28T13:24:41.283Z,4404
2018-11-28T13:25:42.071Z,5928
2018-11-28T13:26:42.860Z,5248
2018-11-28T13:27:43.103Z,7212
2018-11-28T13:28:46.270Z,7288
2018-11-28T13:29:45.808Z,5188
2018-11-28T13:30:46.326Z,4588
2018-11-28T13:31:46.790Z,3796
2018-11-28T13:32:48.061Z,4272
2018-11-28T13:33:48.369Z,4356
2018-11-28T13:34:49.439Z,4936
2018-11-28T13:35:50.508Z,4900
2018-11-28T13:36:50.742Z,4816
2018-11-28T13:37:52.529Z,5444
2018-11-28T13:38:52.321Z,6316
2018-11-28T13:39:52.834Z,5632
2018-11-28T13:40:57.491Z,3688
2018-11-28T13:41:56.792Z,2756
2018-11-28T13:42:57.170Z,2588
2018-11-28T13:43:57.232Z,2304
2018-11-28T13:44:57.738Z,2284
2018-11-28T13:45:58.805Z,2316
2018-11-28T13:46:59.902Z,2384
2018-11-28T13:48:00.136Z,2496
2018-11-28T13:49:00.927Z,2532
2018-11-28T13:50:02.276Z,2352
2018-11-28T13:51:02.063Z,2128
2018-11-28T13:52:03.499Z,1940
2018-11-28T13:53:04.183Z,1792
2018-11-28T13:54:31.960Z,1756